Arcata, California
Current Conditions -  °F | °C
As of 2:53 PM on Thursday 20 Nov 2014 (Local Time) from KACV Reporting Station
Overcast Overcast  
Wind Chill: 13°   Ceiling: 6500
Heat Index: 13°   Visibility: 10mi
Dew Point: 11°   Wind: 5mph
Humidity: 89%   Direction: 110°ESE
Pressure: 29.94"   Gusts: NA
Location:  40.87°N, 124.08°W
Report Text: KACV 202253Z AUTO 11004KT 10SM SCT046 OVC065 13/11 A2994 RMK AO2 RAE22 SLP145 P0002 T01280111
Loading
Personal Weather Stations






























Interactive Weather Map New forecast layout! Learn more

10-Day Weather Forecast

Advertisements
Track Severe Weather on mobile